»·PEaware :: FFT2165 KLAS-KLAX

FFT2165 :: KLAS-KLAX

FLIGHT INFORMATION

Flight Status: Arrived
Operator:
Frontier Airlines
More flights by this operator :: More flights under this callsign
Pilot: Andrew J. (13363)
Aircraft: AIRBUS A320
(A320)
More flights by this aircraft type
Origin: KLAS McCarran Intl
United States
Destination: KLAX Los Angeles Intl
United States
More flights between these airports :: More routes between these airports
Route: BOACH8 RIKII SHTNR ANJLL4
File this flight plan on PilotEdge
Remarks:
Altitude:
(Current/Filed)
30,000ft
Speed:
(Current/Filed)
466kts
Departed: 14-Oct-20 06:22 PM
Arrived: 14-Oct-20 07:02 PM
Distance/Time
Traveled:
205nm/0:40
Distance/Time
To Go:
Arrived

Flight Plot

Page will automatically refresh every two minutes.

Flight plan parsing failed; only flown route is shown


Map Options




Map Legend


Flown Route
Filed Route
Departure Airport
Arrival Airport
Navaid (VOR, NDB)
Fix

Horizontal Profiles

Position Reports

Time Latitude Longitude Heading Altitude Ground
Speed
14-Oct-20 18:10 36.082573 -115.134758 291 2187ft 0kts
14-Oct-20 18:11 36.082573 -115.134758 291 2187ft 0kts
14-Oct-20 18:12 36.082573 -115.134758 291 2187ft 0kts
14-Oct-20 18:13 36.082568 -115.134743 292 2187ft 1kts
14-Oct-20 18:14 36.082435 -115.134095 270 2187ft 2kts
14-Oct-20 18:15 36.082515 -115.133548 247 2187ft 0kts
14-Oct-20 18:16 36.082508 -115.133556 231 2187ft 0kts
14-Oct-20 18:17 36.081762 -115.133545 180 2187ft 6kts
14-Oct-20 18:18 36.078876 -115.133655 184 2187ft 13kts
14-Oct-20 18:19 36.077582 -115.129905 89 2187ft 17kts
14-Oct-20 18:20 36.077601 -115.123209 89 2187ft 20kts
14-Oct-20 18:21 36.076457 -115.133964 269 2187ft 135kts
14-Oct-20 18:22 36.075283 -115.192057 269 4143ft 172kts
14-Oct-20 18:23 36.062282 -115.257540 213 5615ft 241kts
14-Oct-20 18:24 35.991698 -115.291395 200 7760ft 297kts
14-Oct-20 18:25 35.908625 -115.308730 184 10609ft 318kts
14-Oct-20 18:26 35.811225 -115.309741 174 11860ft 388kts
14-Oct-20 18:28 35.701922 -115.296993 175 13994ft 420kts
14-Oct-20 18:29 35.583645 -115.297876 182 16556ft 434kts
14-Oct-20 18:30 35.465332 -115.329176 210 18626ft 451kts
14-Oct-20 18:31 35.354174 -115.411027 212 20324ft 473kts
14-Oct-20 18:32 35.239161 -115.494584 211 22240ft 484kts
14-Oct-20 18:33 35.124239 -115.583454 220 24129ft 489kts
14-Oct-20 18:34 35.028964 -115.699481 227 26447ft 479kts
14-Oct-20 18:35 34.939038 -115.814924 226 28798ft 462kts
14-Oct-20 18:36 34.849832 -115.927813 225 30089ft 460kts
14-Oct-20 18:37 34.760754 -116.040385 225 30102ft 460kts
14-Oct-20 18:38 34.670804 -116.155074 226 30103ft 472kts
14-Oct-20 18:39 34.579007 -116.271580 226 30100ft 471kts
14-Oct-20 18:40 34.487811 -116.386860 226 29091ft 475kts
14-Oct-20 18:41 34.403799 -116.509323 239 25741ft 472kts
14-Oct-20 18:42 34.347379 -116.644849 243 24375ft 418kts
14-Oct-20 18:42 34.306429 -116.746257 243 23146ft 393kts
14-Oct-20 18:44 34.251551 -116.882553 243 21128ft 373kts
14-Oct-20 18:44 34.214156 -116.976825 246 19666ft 376kts
14-Oct-20 18:46 34.175205 -117.115416 251 17562ft 371kts
14-Oct-20 18:46 34.148563 -117.213107 251 16096ft 364kts
14-Oct-20 18:47 34.118814 -117.320933 251 14531ft 333kts
14-Oct-20 18:48 34.091886 -117.422872 252 13158ft 317kts
14-Oct-20 18:49 34.064632 -117.522052 246 12005ft 306kts
14-Oct-20 18:50 34.030908 -117.615517 245 11105ft 301kts
14-Oct-20 18:51 34.004039 -117.709286 261 9609ft 297kts
14-Oct-20 18:52 33.994792 -117.806628 262 8152ft 286kts
14-Oct-20 18:53 33.986025 -117.896945 262 6964ft 255kts
14-Oct-20 18:54 33.977936 -117.978917 262 6058ft 244kts
14-Oct-20 18:55 33.970937 -118.059637 262 5297ft 241kts
14-Oct-20 18:56 33.962786 -118.140201 261 4052ft 242kts
14-Oct-20 18:57 33.954331 -118.220057 261 2771ft 230kts
14-Oct-20 18:58 33.946980 -118.290093 261 1634ft 183kts
14-Oct-20 18:59 33.942352 -118.334697 261 905ft 131kts
14-Oct-20 19:00 33.937800 -118.378407 262 231ft 131kts
14-Oct-20 19:01 33.936256 -118.404359 264 128ft 26kts
14-Oct-20 19:02 33.935995 -118.408275 285 132ft 0kts
14-Oct-20 19:03 33.936066 -118.408484 300 132ft 3kts
14-Oct-20 19:04 33.938272 -118.409188 354 132ft 11kts
14-Oct-20 19:05 33.938978 -118.406018 83 130ft 12kts
14-Oct-20 19:06 33.939578 -118.403309 321 126ft 5kts
14-Oct-20 19:07 33.939889 -118.403765 309 127ft 0kts
14-Oct-20 19:08 33.939889 -118.403765 309 127ft 0kts
14-Oct-20 19:09 33.939889 -118.403765 309 127ft 0kts
14-Oct-20 19:10 33.939889 -118.403765 309 127ft 0kts

Navigation Log

Ident Type
Flight plan parsing failed, navigation log unavailable